createdAt,value
2018-11-04T00:00:33.016Z,0.00
2018-11-04T00:01:33.018Z,0.00
2018-11-04T00:02:32.970Z,0.00
2018-11-04T00:03:32.933Z,0.00
2018-11-04T00:04:32.934Z,0.00
2018-11-04T00:05:32.977Z,0.00
2018-11-04T00:06:32.941Z,0.00
2018-11-04T00:07:32.890Z,0.00
2018-11-04T00:08:32.878Z,0.00
2018-11-04T00:09:32.871Z,0.00
2018-11-04T00:10:32.925Z,0.00
2018-11-04T00:11:32.890Z,0.00
2018-11-04T00:12:32.841Z,0.00
2018-11-04T00:13:32.827Z,0.00
2018-11-04T00:14:32.824Z,0.00
2018-11-04T00:15:32.868Z,0.00
2018-11-04T00:16:32.940Z,0.00
2018-11-04T00:17:32.782Z,0.00
2018-11-04T00:18:32.779Z,0.00
2018-11-04T00:19:32.772Z,0.00
2018-11-04T00:20:32.810Z,0.00
2018-11-04T00:21:32.775Z,0.00
2018-11-04T00:22:32.739Z,0.00
2018-11-04T00:23:32.754Z,0.00
2018-11-04T00:24:32.714Z,0.00
2018-11-04T00:25:32.753Z,0.00
2018-11-04T00:26:32.703Z,0.00
2018-11-04T00:27:32.713Z,0.00
2018-11-04T00:28:32.765Z,0.00
2018-11-04T00:29:33.044Z,0.00
2018-11-04T00:30:32.645Z,0.00
2018-11-04T00:31:32.646Z,0.00
2018-11-04T00:32:32.637Z,0.00
2018-11-04T00:33:32.641Z,0.00
2018-11-04T00:34:32.680Z,0.00
2018-11-04T00:35:32.590Z,0.00
2018-11-04T00:36:32.578Z,0.00
2018-11-04T00:37:32.581Z,0.00
2018-11-04T00:38:32.593Z,0.00
2018-11-04T00:39:32.597Z,0.00
2018-11-04T00:40:32.540Z,0.00
2018-11-04T00:41:32.527Z,0.00
2018-11-04T00:42:32.565Z,0.00
2018-11-04T00:43:32.557Z,0.00
2018-11-04T00:44:32.488Z,0.00
2018-11-04T00:45:32.616Z,0.00
2018-11-04T00:46:32.471Z,0.00
2018-11-04T00:47:32.514Z,0.00
2018-11-04T00:48:32.554Z,0.00
2018-11-04T00:49:32.453Z,0.00
2018-11-04T00:50:32.469Z,0.00
2018-11-04T00:51:32.422Z,0.00
2018-11-04T00:52:32.465Z,0.00
2018-11-04T00:53:32.393Z,0.00
2018-11-04T00:54:32.406Z,0.00
2018-11-04T00:55:32.429Z,0.00
2018-11-04T00:56:32.362Z,0.00
2018-11-04T00:57:32.407Z,0.00
2018-11-04T00:58:32.345Z,0.00
2018-11-04T00:59:32.388Z,0.00
2018-11-04T01:00:32.386Z,0.00
2018-11-04T01:01:32.333Z,0.00
2018-11-04T01:02:32.326Z,0.00
2018-11-04T01:03:32.292Z,0.00
2018-11-04T01:04:32.351Z,0.00
2018-11-04T01:05:32.299Z,0.00
2018-11-04T01:06:32.288Z,0.00
2018-11-04T01:07:32.244Z,0.00
2018-11-04T01:08:32.248Z,0.00
2018-11-04T01:09:32.285Z,0.00
2018-11-04T01:10:32.209Z,0.00
2018-11-04T01:11:32.244Z,0.00
2018-11-04T01:12:32.188Z,0.00
2018-11-04T01:13:32.180Z,0.00
2018-11-04T01:14:32.250Z,0.00
2018-11-04T01:15:32.158Z,0.00
2018-11-04T01:16:32.189Z,0.00
2018-11-04T01:17:32.137Z,0.00
2018-11-04T01:18:32.129Z,0.00
2018-11-04T01:19:32.194Z,0.00
2018-11-04T01:20:32.103Z,0.00
2018-11-04T01:21:32.146Z,0.00
2018-11-04T01:22:32.080Z,0.00
2018-11-04T01:23:32.080Z,0.00
2018-11-04T01:24:32.225Z,0.00
2018-11-04T01:25:32.049Z,0.00
2018-11-04T01:26:32.043Z,0.00
2018-11-04T01:27:32.038Z,0.00
2018-11-04T01:28:32.063Z,0.00
2018-11-04T01:29:32.062Z,0.00
2018-11-04T01:30:32.000Z,0.00
2018-11-04T01:31:31.985Z,0.00
2018-11-04T01:32:31.978Z,0.00
2018-11-04T01:33:31.963Z,0.00
2018-11-04T01:34:32.006Z,0.00
2018-11-04T01:35:32.524Z,0.00
2018-11-04T01:36:31.932Z,0.00
2018-11-04T01:37:31.921Z,0.00
2018-11-04T01:38:31.921Z,0.00
2018-11-04T01:39:31.897Z,0.00
2018-11-04T01:40:32.000Z,0.00
2018-11-04T01:41:31.873Z,0.00
2018-11-04T01:42:31.868Z,0.00
2018-11-04T01:43:31.854Z,0.00
2018-11-04T01:44:31.847Z,0.00
2018-11-04T01:45:31.931Z,0.00
2018-11-04T01:46:31.830Z,0.00
2018-11-04T01:47:31.811Z,0.00
2018-11-04T01:48:31.809Z,0.00
2018-11-04T01:49:31.789Z,0.00
2018-11-04T01:50:31.870Z,0.00
2018-11-04T01:51:31.772Z,0.00
2018-11-04T01:52:31.769Z,0.00
2018-11-04T01:53:31.750Z,0.00
2018-11-04T01:54:31.735Z,0.00
2018-11-04T01:55:31.832Z,0.00
2018-11-04T01:56:31.726Z,0.00
2018-11-04T01:57:31.869Z,0.00
2018-11-04T01:58:31.710Z,0.00
2018-11-04T01:59:31.688Z,0.00
2018-11-04T02:00:31.760Z,0.00
2018-11-04T02:01:31.985Z,0.00
2018-11-04T02:02:31.648Z,0.00
2018-11-04T02:03:31.644Z,0.00
2018-11-04T02:04:31.651Z,0.00
2018-11-04T02:05:31.651Z,0.00
2018-11-04T02:06:31.688Z,0.00
2018-11-04T02:07:31.592Z,0.00
2018-11-04T02:08:31.583Z,0.00
2018-11-04T02:09:31.587Z,0.00
2018-11-04T02:10:31.594Z,0.00
2018-11-04T02:11:31.604Z,0.00
2018-11-04T02:12:31.982Z,0.00
2018-11-04T02:13:31.532Z,0.00
2018-11-04T02:14:31.516Z,0.00
2018-11-04T02:15:31.565Z,0.00
2018-11-04T02:16:31.554Z,0.00
2018-11-04T02:17:31.550Z,0.00
2018-11-04T02:18:31.486Z,0.00
2018-11-04T02:19:31.494Z,0.00
2018-11-04T02:20:31.451Z,0.00
2018-11-04T02:21:31.461Z,0.00
2018-11-04T02:22:31.502Z,0.00
2018-11-04T02:23:31.430Z,0.00
2018-11-04T02:24:31.504Z,0.00
2018-11-04T02:25:31.433Z,0.00
2018-11-04T02:26:31.421Z,0.00
2018-11-04T02:27:31.388Z,0.00
2018-11-04T02:28:31.390Z,0.00
2018-11-04T02:29:31.443Z,0.00
2018-11-04T02:30:31.350Z,0.00
2018-11-04T02:31:31.337Z,0.00
2018-11-04T02:32:31.378Z,0.00
2018-11-04T02:33:31.315Z,0.00
2018-11-04T02:34:31.342Z,0.00
2018-11-04T02:35:31.384Z,0.00
2018-11-04T02:36:31.276Z,0.00
2018-11-04T02:37:31.273Z,0.00
2018-11-04T02:38:31.307Z,0.00
2018-11-04T02:39:31.257Z,0.00
2018-11-04T02:40:31.290Z,0.00
2018-11-04T02:41:31.227Z,0.00
2018-11-04T02:42:31.215Z,0.00
2018-11-04T02:43:31.256Z,0.00
2018-11-04T02:44:31.232Z,0.00
2018-11-04T02:45:31.237Z,0.00
2018-11-04T02:46:31.181Z,0.00
2018-11-04T02:47:31.164Z,0.00
2018-11-04T02:48:31.154Z,0.00
2018-11-04T02:49:31.225Z,0.00
2018-11-04T02:50:31.137Z,0.00
2018-11-04T02:51:31.126Z,0.00
2018-11-04T02:52:31.122Z,0.00
2018-11-04T02:53:31.098Z,0.00
2018-11-04T02:54:31.190Z,0.00
2018-11-04T02:55:31.078Z,0.00
2018-11-04T02:56:31.071Z,0.00
2018-11-04T02:57:31.060Z,0.00
2018-11-04T02:58:31.071Z,0.00
2018-11-04T02:59:31.126Z,0.00
2018-11-04T03:00:31.028Z,0.00
2018-11-04T03:01:31.017Z,0.00
2018-11-04T03:02:30.999Z,0.00
2018-11-04T03:03:30.989Z,0.00
2018-11-04T03:04:31.104Z,0.00
2018-11-04T03:05:30.973Z,0.00
2018-11-04T03:06:30.962Z,0.00
2018-11-04T03:07:30.949Z,0.00
2018-11-04T03:08:30.941Z,0.00
2018-11-04T03:09:30.985Z,0.00
2018-11-04T03:10:30.912Z,0.00
2018-11-04T03:11:30.918Z,0.00
2018-11-04T03:12:30.906Z,0.00
2018-11-04T03:13:30.888Z,0.00
2018-11-04T03:14:30.978Z,0.00
2018-11-04T03:15:30.862Z,0.00
2018-11-04T03:16:30.850Z,0.00
2018-11-04T03:17:30.879Z,0.00
2018-11-04T03:18:30.834Z,0.00
2018-11-04T03:19:30.892Z,0.00
2018-11-04T03:20:30.804Z,0.00
2018-11-04T03:21:30.800Z,0.00
2018-11-04T03:22:30.873Z,0.00
2018-11-04T03:23:30.778Z,0.00
2018-11-04T03:24:30.835Z,0.00
2018-11-04T03:25:30.771Z,0.00
2018-11-04T03:26:30.741Z,0.00
2018-11-04T03:27:30.765Z,0.00
2018-11-04T03:28:30.769Z,0.00
2018-11-04T03:29:30.722Z,0.00
2018-11-04T03:30:30.734Z,0.00
2018-11-04T03:31:30.740Z,0.00
2018-11-04T03:32:30.674Z,0.00
2018-11-04T03:33:30.723Z,0.00
2018-11-04T03:34:30.656Z,0.00
2018-11-04T03:35:30.686Z,0.00
2018-11-04T03:36:30.632Z,0.00
2018-11-04T03:37:30.630Z,0.00
2018-11-04T03:38:30.683Z,0.00
2018-11-04T03:39:30.605Z,0.00
2018-11-04T03:40:30.628Z,0.00
2018-11-04T03:41:30.629Z,0.00
2018-11-04T03:42:30.574Z,0.00
2018-11-04T03:43:30.558Z,0.00
2018-11-04T03:44:30.574Z,0.00
2018-11-04T03:45:30.568Z,0.00
2018-11-04T03:46:30.576Z,0.00
2018-11-04T03:47:30.554Z,0.00
2018-11-04T03:48:30.506Z,0.00
2018-11-04T03:49:30.521Z,0.00
2018-11-04T03:50:30.480Z,0.00
2018-11-04T03:51:30.530Z,0.00
2018-11-04T03:52:30.497Z,0.00
2018-11-04T03:53:30.501Z,0.00
2018-11-04T03:54:30.448Z,0.00
2018-11-04T03:55:30.482Z,0.00
2018-11-04T03:56:30.469Z,0.00
2018-11-04T03:57:30.411Z,0.00
2018-11-04T03:58:30.432Z,0.00
2018-11-04T03:59:30.388Z,0.00
2018-11-04T04:00:30.377Z,0.00
2018-11-04T04:01:30.452Z,0.00
2018-11-04T04:02:30.354Z,0.00
2018-11-04T04:03:30.383Z,0.00
2018-11-04T04:04:30.421Z,0.00
2018-11-04T04:05:30.327Z,0.00
2018-11-04T04:06:30.373Z,0.00
2018-11-04T04:07:30.321Z,0.00
2018-11-04T04:08:30.334Z,0.00
2018-11-04T04:09:30.278Z,0.00
2018-11-04T04:10:30.266Z,0.00
2018-11-04T04:11:30.332Z,0.00
2018-11-04T04:12:30.260Z,0.00
2018-11-04T04:13:30.292Z,0.00
2018-11-04T04:14:30.227Z,0.00
2018-11-04T04:15:30.218Z,0.00
2018-11-04T04:16:30.264Z,0.00
2018-11-04T04:17:30.192Z,0.00
2018-11-04T04:18:30.227Z,0.00
2018-11-04T04:19:30.199Z,0.00
2018-11-04T04:20:30.162Z,0.00
2018-11-04T04:21:30.205Z,0.00
2018-11-04T04:22:30.153Z,0.00
2018-11-04T04:23:30.164Z,0.00
2018-11-04T04:24:30.159Z,0.00
2018-11-04T04:25:30.132Z,0.00
2018-11-04T04:26:30.161Z,0.00
2018-11-04T04:27:30.088Z,0.00
2018-11-04T04:28:30.082Z,0.00
2018-11-04T04:29:30.096Z,0.00
2018-11-04T04:30:30.052Z,0.00
2018-11-04T04:31:30.120Z,0.00
2018-11-04T04:32:30.033Z,0.00
2018-11-04T04:33:30.027Z,0.00
2018-11-04T04:34:30.044Z,0.00
2018-11-04T04:35:30.008Z,0.00
2018-11-04T04:36:30.037Z,0.00
2018-11-04T04:37:29.993Z,0.00
2018-11-04T04:38:29.970Z,0.00
2018-11-04T04:39:30.050Z,0.00
2018-11-04T04:40:29.945Z,0.00
2018-11-04T04:41:29.935Z,0.00
2018-11-04T04:42:29.928Z,0.00
2018-11-04T04:43:29.928Z,0.00
2018-11-04T04:44:29.988Z,0.00
2018-11-04T04:45:29.927Z,0.00
2018-11-04T04:46:29.883Z,0.00
2018-11-04T04:47:29.869Z,0.00
2018-11-04T04:48:29.859Z,0.00
2018-11-04T04:49:29.953Z,0.00
2018-11-04T04:50:29.836Z,0.00
2018-11-04T04:51:29.838Z,0.00
2018-11-04T04:52:29.815Z,0.00
2018-11-04T04:53:29.813Z,0.00
2018-11-04T04:54:29.875Z,0.00
2018-11-04T04:55:29.829Z,0.00
2018-11-04T04:56:29.784Z,0.00
2018-11-04T04:57:29.764Z,0.00
2018-11-04T04:58:29.759Z,0.00
2018-11-04T04:59:29.840Z,0.00
2018-11-04T05:00:29.936Z,0.00
2018-11-04T05:01:29.745Z,0.00
2018-11-04T05:02:29.711Z,0.00
2018-11-04T05:03:29.700Z,0.00
2018-11-04T05:04:29.728Z,0.00
2018-11-04T05:05:29.734Z,0.00
2018-11-04T05:06:29.664Z,0.00
2018-11-04T05:07:29.681Z,0.00
2018-11-04T05:08:29.645Z,0.00
2018-11-04T05:09:29.668Z,0.00
2018-11-04T05:10:29.674Z,0.00
2018-11-04T05:11:29.647Z,0.00
2018-11-04T05:12:29.598Z,0.00
2018-11-04T05:13:29.616Z,0.00
2018-11-04T05:14:29.581Z,0.00
2018-11-04T05:15:29.616Z,0.00
2018-11-04T05:16:29.593Z,0.00
2018-11-04T05:17:29.548Z,0.00
2018-11-04T05:18:29.535Z,0.00
2018-11-04T05:19:29.531Z,0.00
2018-11-04T05:20:29.594Z,0.00
2018-11-04T05:21:29.539Z,0.00
2018-11-04T05:22:29.552Z,0.00
2018-11-04T05:23:29.516Z,0.00
2018-11-04T05:24:29.471Z,0.00
2018-11-04T05:25:29.485Z,0.00
2018-11-04T05:26:29.447Z,0.00
2018-11-04T05:27:29.494Z,0.00
2018-11-04T05:28:29.431Z,0.00
2018-11-04T05:29:29.460Z,0.00
2018-11-04T05:30:29.431Z,0.00
2018-11-04T05:31:29.395Z,0.00
2018-11-04T05:32:29.438Z,0.00
2018-11-04T05:33:29.389Z,0.00
2018-11-04T05:34:29.404Z,0.00
2018-11-04T05:35:29.355Z,4.00
2018-11-04T05:36:29.418Z,4.00
2018-11-04T05:37:29.329Z,4.00
2018-11-04T05:38:29.432Z,4.00
2018-11-04T05:39:29.351Z,4.00
2018-11-04T05:40:29.312Z,8.00
2018-11-04T05:41:29.288Z,8.00
2018-11-04T05:42:29.295Z,8.00
2018-11-04T05:43:29.317Z,12.00
2018-11-04T05:44:29.289Z,12.00
2018-11-04T05:45:29.243Z,16.00
2018-11-04T05:46:29.298Z,20.00
2018-11-04T05:47:29.227Z,24.00
2018-11-04T05:48:29.231Z,28.00
2018-11-04T05:49:29.233Z,36.00
2018-11-04T05:50:29.228Z,44.00
2018-11-04T05:51:29.235Z,52.00
2018-11-04T05:52:29.171Z,60.00
2018-11-04T05:53:29.162Z,68.00
2018-11-04T05:54:29.160Z,84.00
2018-11-04T05:55:29.173Z,96.00
2018-11-04T05:56:29.177Z,108.00
2018-11-04T05:57:33.829Z,128.00
2018-11-04T05:58:29.105Z,144.00
2018-11-04T05:59:29.095Z,168.00
2018-11-04T06:00:29.185Z,188.00
2018-11-04T06:01:29.426Z,212.00
2018-11-04T06:02:29.062Z,236.00
2018-11-04T06:03:29.054Z,264.00
2018-11-04T06:04:29.055Z,300.00
2018-11-04T06:05:29.116Z,340.00
2018-11-04T06:06:29.480Z,396.00
2018-11-04T06:07:29.026Z,456.00
2018-11-04T06:08:29.002Z,512.00
2018-11-04T06:09:28.991Z,560.00
2018-11-04T06:10:28.980Z,588.00
2018-11-04T06:11:29.036Z,604.00
2018-11-04T06:12:28.962Z,624.00
2018-11-04T06:13:28.952Z,652.00
2018-11-04T06:14:28.946Z,696.00
2018-11-04T06:15:28.922Z,752.00
2018-11-04T06:16:28.969Z,812.00
2018-11-04T06:17:28.940Z,880.00
2018-11-04T06:18:28.886Z,948.00
2018-11-04T06:19:28.943Z,1040.00
2018-11-04T06:20:28.933Z,1132.00
2018-11-04T06:21:28.860Z,1204.00
2018-11-04T06:22:28.935Z,1276.00
2018-11-04T06:23:28.839Z,1364.00
2018-11-04T06:24:28.831Z,1468.00
2018-11-04T06:25:28.820Z,1568.00
2018-11-04T06:26:28.819Z,1676.00
2018-11-04T06:27:28.898Z,1800.00
2018-11-04T06:28:28.783Z,1932.00
2018-11-04T06:29:28.773Z,2056.00
2018-11-04T06:30:28.769Z,2160.00
2018-11-04T06:31:28.751Z,2256.00
2018-11-04T06:32:28.838Z,2332.00
2018-11-04T06:33:28.772Z,2368.00
2018-11-04T06:34:28.767Z,2392.00
2018-11-04T06:35:28.712Z,2428.00
2018-11-04T06:36:28.700Z,2480.00
2018-11-04T06:37:28.737Z,2528.00
2018-11-04T06:38:28.733Z,2576.00
2018-11-04T06:39:28.665Z,2624.00
2018-11-04T06:40:28.654Z,2680.00
2018-11-04T06:41:28.679Z,2744.00
2018-11-04T06:42:28.697Z,2804.00
2018-11-04T06:43:28.623Z,2864.00
2018-11-04T06:44:28.638Z,2932.00
2018-11-04T06:45:28.601Z,3028.00
2018-11-04T06:46:28.628Z,3144.00
2018-11-04T06:47:28.691Z,3256.00
2018-11-04T06:48:28.569Z,3348.00
2018-11-04T06:49:28.555Z,3420.00
2018-11-04T06:50:28.562Z,3476.00
2018-11-04T06:51:28.571Z,3540.00
2018-11-04T06:52:28.628Z,3620.00
2018-11-04T06:53:28.520Z,3672.00
2018-11-04T06:54:28.507Z,3724.00
2018-11-04T06:55:28.501Z,3776.00
2018-11-04T06:56:28.500Z,3840.00
2018-11-04T06:57:28.562Z,3904.00
2018-11-04T06:58:28.464Z,3968.00
2018-11-04T06:59:28.448Z,4060.00
2018-11-04T07:00:28.444Z,4136.00
2018-11-04T07:01:28.448Z,4216.00
2018-11-04T07:02:28.626Z,4260.00
2018-11-04T07:03:28.419Z,4328.00
2018-11-04T07:04:29.347Z,4432.00
2018-11-04T07:05:28.393Z,4508.00
2018-11-04T07:06:28.385Z,4552.00
2018-11-04T07:07:28.539Z,4596.00
2018-11-04T07:08:28.369Z,4684.00
2018-11-04T07:09:28.442Z,4780.00
2018-11-04T07:10:28.444Z,4864.00
2018-11-04T07:11:28.405Z,4964.00
2018-11-04T07:12:28.400Z,5116.00
2018-11-04T07:13:28.317Z,5232.00
2018-11-04T07:14:29.905Z,5324.00
2018-11-04T07:15:28.952Z,5408.00
2018-11-04T07:16:28.903Z,5488.00
2018-11-04T07:17:28.297Z,5560.00
2018-11-04T07:18:28.272Z,5616.00
2018-11-04T07:19:28.295Z,5696.00
2018-11-04T07:20:28.327Z,5780.00
2018-11-04T07:21:28.269Z,5832.00
2018-11-04T07:22:28.296Z,5884.00
2018-11-04T07:23:28.232Z,5952.00
2018-11-04T07:24:28.516Z,6036.00
2018-11-04T07:25:28.247Z,6100.00
2018-11-04T07:26:28.189Z,6104.00
2018-11-04T07:27:28.178Z,6180.00
2018-11-04T07:28:28.220Z,6284.00
2018-11-04T07:29:28.430Z,6348.00
2018-11-04T07:30:28.181Z,6396.00
2018-11-04T07:31:28.116Z,6412.00
2018-11-04T07:32:28.172Z,6460.00
2018-11-04T07:33:28.083Z,6568.00
2018-11-04T07:34:28.110Z,6684.00
2018-11-04T07:35:28.159Z,6816.00
2018-11-04T07:36:28.055Z,6936.00
2018-11-04T07:37:28.890Z,7036.00
2018-11-04T07:38:28.049Z,7188.00
2018-11-04T07:39:28.036Z,7352.00
2018-11-04T07:40:28.056Z,7468.00
2018-11-04T07:41:28.394Z,7644.00
2018-11-04T07:42:27.990Z,7824.00
2018-11-04T07:43:27.979Z,7884.00
2018-11-04T07:44:28.110Z,7928.00
2018-11-04T07:45:27.946Z,7996.00
2018-11-04T07:46:27.986Z,8072.00
2018-11-04T07:47:27.962Z,8140.00
2018-11-04T07:48:27.914Z,8224.00
2018-11-04T07:49:27.904Z,8252.00
2018-11-04T07:50:27.899Z,8456.00
2018-11-04T07:51:27.974Z,8616.00
2018-11-04T07:52:27.926Z,8880.00
2018-11-04T07:53:27.863Z,9408.00
2018-11-04T07:54:27.857Z,9492.00
2018-11-04T07:55:27.868Z,9540.00
2018-11-04T07:56:27.883Z,9940.00
2018-11-04T07:57:27.879Z,10112.00
2018-11-04T07:58:27.809Z,10164.00
2018-11-04T07:59:27.802Z,10468.00
2018-11-04T08:00:27.797Z,10272.00
2018-11-04T08:01:27.845Z,10348.00
2018-11-04T08:02:27.797Z,10168.00
2018-11-04T08:03:27.880Z,9996.00
2018-11-04T08:04:27.748Z,9932.00
2018-11-04T08:05:27.736Z,9948.00
2018-11-04T08:06:27.726Z,10132.00
2018-11-04T08:07:27.729Z,14044.00
2018-11-04T08:08:27.865Z,25376.00
2018-11-04T08:09:27.694Z,36832.00
2018-11-04T08:10:27.704Z,44128.00
2018-11-04T08:11:27.682Z,46752.00
2018-11-04T08:12:27.662Z,52640.00
2018-11-04T08:13:27.826Z,54656.00
2018-11-04T08:14:27.649Z,55840.00
2018-11-04T08:15:27.623Z,54624.00
2018-11-04T08:16:27.617Z,56736.00
2018-11-04T08:17:27.696Z,54976.00
2018-11-04T08:18:27.626Z,51808.00
2018-11-04T08:19:27.632Z,52416.00
2018-11-04T08:20:27.611Z,54048.00
2018-11-04T08:21:28.478Z,55488.00
2018-11-04T08:22:27.559Z,50944.00
2018-11-04T08:23:27.591Z,49920.00
2018-11-04T08:24:27.587Z,52896.00
2018-11-04T08:25:27.523Z,54720.00
2018-11-04T08:26:27.507Z,51008.00
2018-11-04T08:27:27.543Z,54144.00
2018-11-04T08:28:27.520Z,55232.00
2018-11-04T08:29:27.554Z,46944.00
2018-11-04T08:30:27.484Z,54944.00
2018-11-04T08:31:27.468Z,51584.00
2018-11-04T08:32:27.445Z,49088.00
2018-11-04T08:33:27.465Z,49984.00
2018-11-04T08:34:27.482Z,47296.00
2018-11-04T08:35:27.935Z,47712.00
2018-11-04T08:36:27.418Z,48256.00
2018-11-04T08:37:27.390Z,50880.00
2018-11-04T08:38:27.424Z,47424.00
2018-11-04T08:39:27.386Z,49856.00
2018-11-04T08:40:27.511Z,49856.00
2018-11-04T08:41:27.347Z,48800.00
2018-11-04T08:42:27.428Z,48256.00
2018-11-04T08:43:27.362Z,47744.00
2018-11-04T08:44:27.313Z,50688.00
2018-11-04T08:45:27.358Z,48672.00
2018-11-04T08:46:27.834Z,54240.00
2018-11-04T08:47:27.409Z,53760.00
2018-11-04T08:48:27.305Z,54752.00
2018-11-04T08:49:27.256Z,54176.00
2018-11-04T08:50:27.685Z,48160.00
2018-11-04T08:51:27.233Z,50240.00
2018-11-04T08:52:29.872Z,50208.00
2018-11-04T08:53:27.591Z,48992.00
2018-11-04T08:54:27.206Z,52480.00
2018-11-04T08:55:27.401Z,53088.00
2018-11-04T08:56:27.190Z,55328.00
2018-11-04T08:57:27.179Z,52896.00
2018-11-04T08:58:27.251Z,52128.00
2018-11-04T08:59:27.167Z,53920.00
2018-11-04T09:00:27.159Z,52160.00
2018-11-04T09:01:27.127Z,49088.00
2018-11-04T09:02:27.114Z,48896.00
2018-11-04T09:03:27.212Z,48352.00
2018-11-04T09:04:27.095Z,46464.00
2018-11-04T09:05:27.089Z,42912.00
2018-11-04T09:06:27.213Z,41600.00
2018-11-04T09:07:27.063Z,42304.00
2018-11-04T09:08:27.085Z,42912.00
2018-11-04T09:09:27.113Z,43104.00
2018-11-04T09:10:27.026Z,44256.00
2018-11-04T09:11:27.081Z,45888.00
2018-11-04T09:12:27.005Z,46112.00
2018-11-04T09:13:27.028Z,48032.00
2018-11-04T09:14:27.190Z,49408.00
2018-11-04T09:15:27.379Z,50048.00
2018-11-04T09:16:26.967Z,49952.00
2018-11-04T09:17:26.958Z,48128.00
2018-11-04T09:18:27.174Z,45408.00
2018-11-04T09:19:27.427Z,45280.00
2018-11-04T09:20:26.943Z,44064.00
2018-11-04T09:21:27.524Z,44032.00
2018-11-04T09:22:30.908Z,42560.00
2018-11-04T09:23:28.864Z,23872.00
2018-11-04T09:24:27.543Z,39424.00
2018-11-04T09:25:26.949Z,51168.00
2018-11-04T09:26:27.419Z,50176.00
2018-11-04T09:27:26.880Z,53568.00
2018-11-04T09:28:26.832Z,54016.00
2018-11-04T09:29:26.843Z,51360.00
2018-11-04T09:30:29.086Z,47808.00
2018-11-04T09:31:26.938Z,49696.00
2018-11-04T09:32:28.408Z,51648.00
2018-11-04T09:33:26.922Z,49632.00
2018-11-04T09:34:26.828Z,47648.00
2018-11-04T09:35:27.026Z,47232.00
2018-11-04T09:36:27.077Z,47776.00
2018-11-04T09:37:26.845Z,48896.00
2018-11-04T09:38:26.779Z,48192.00
2018-11-04T09:39:26.776Z,44544.00
2018-11-04T09:40:26.720Z,47776.00
2018-11-04T09:41:26.962Z,49120.00
2018-11-04T09:42:26.702Z,49216.00
2018-11-04T09:43:26.692Z,49952.00
2018-11-04T09:44:26.677Z,49792.00
2018-11-04T09:45:26.697Z,49760.00
2018-11-04T09:46:26.666Z,48480.00
2018-11-04T09:47:26.691Z,51104.00
2018-11-04T09:48:26.617Z,38976.00
2018-11-04T09:49:26.616Z,50752.00
2018-11-04T09:50:26.597Z,52416.00
2018-11-04T09:51:26.662Z,52768.00
2018-11-04T09:52:26.569Z,55168.00
2018-11-04T09:53:27.622Z,55808.00
2018-11-04T09:54:26.577Z,56320.00
2018-11-04T09:55:26.542Z,59168.00
2018-11-04T09:56:26.670Z,52896.00
2018-11-04T09:57:26.524Z,53952.00
2018-11-04T09:58:26.499Z,57792.00
2018-11-04T09:59:26.574Z,60864.00
2018-11-04T10:00:26.483Z,61024.00
2018-11-04T10:01:26.523Z,63136.00
2018-11-04T10:02:26.467Z,69632.00
2018-11-04T10:03:26.460Z,64800.00
2018-11-04T10:04:26.524Z,62880.00
2018-11-04T10:05:26.432Z,65344.00
2018-11-04T10:06:26.493Z,64160.00
2018-11-04T10:07:26.411Z,66016.00
2018-11-04T10:08:26.413Z,69056.00
2018-11-04T10:09:26.442Z,70432.00
2018-11-04T10:10:26.390Z,70848.00
2018-11-04T10:11:26.428Z,68288.00
2018-11-04T10:12:26.357Z,75872.00
2018-11-04T10:13:26.427Z,75296.00
2018-11-04T10:14:26.432Z,76736.00
2018-11-04T10:15:26.365Z,74400.00
2018-11-04T10:16:26.397Z,67872.00
2018-11-04T11:21:11.955Z,72256.00
2018-11-04T11:22:11.768Z,68640.00
2018-11-04T11:23:11.847Z,70624.00
2018-11-04T11:24:11.782Z,71488.00
2018-11-04T11:25:11.746Z,67712.00
2018-11-04T11:26:11.780Z,65216.00
2018-11-04T11:27:11.728Z,63296.00
2018-11-04T11:28:11.721Z,55808.00
2018-11-04T11:29:11.703Z,69792.00
2018-11-04T11:30:11.735Z,73184.00
2018-11-04T11:31:11.725Z,73728.00
2018-11-04T11:32:11.663Z,73536.00
2018-11-04T11:33:11.706Z,75328.00
2018-11-04T11:34:11.641Z,74272.00
2018-11-04T11:35:11.629Z,70400.00
2018-11-04T11:36:11.619Z,68672.00
2018-11-04T11:37:11.635Z,70080.00
2018-11-04T11:38:11.635Z,63904.00
2018-11-04T11:39:11.736Z,60000.00
2018-11-04T11:40:11.583Z,60768.00
2018-11-04T11:41:11.577Z,49600.00
2018-11-04T11:42:11.560Z,46176.00
2018-11-04T11:43:11.578Z,43520.00
2018-11-04T11:44:11.532Z,45888.00
2018-11-04T11:45:11.555Z,52992.00
2018-11-04T11:46:11.503Z,60576.00
2018-11-04T11:47:11.491Z,60416.00
2018-11-04T11:48:11.526Z,58016.00
2018-11-04T11:49:11.723Z,58144.00
2018-11-04T11:50:11.463Z,59328.00
2018-11-04T11:51:11.466Z,65120.00
2018-11-04T11:52:11.452Z,65408.00
2018-11-04T11:53:11.478Z,65952.00
2018-11-04T11:54:11.438Z,67616.00
2018-11-04T11:55:11.416Z,64672.00
2018-11-04T11:56:11.443Z,66048.00
2018-11-04T11:57:18.504Z,70496.00
2018-11-04T11:58:13.192Z,75040.00
2018-11-04T11:59:12.205Z,78048.00
2018-11-04T12:00:11.348Z,76736.00
2018-11-04T12:01:12.212Z,75104.00
2018-11-04T12:02:11.374Z,50976.00
2018-11-04T12:03:11.323Z,76192.00
2018-11-04T12:04:11.333Z,66112.00
2018-11-04T12:05:11.295Z,67232.00
2018-11-04T12:06:11.283Z,59520.00
2018-11-04T12:07:11.306Z,54656.00
2018-11-04T12:08:11.276Z,59424.00
2018-11-04T12:09:11.244Z,53760.00
2018-11-04T12:10:11.244Z,41600.00
2018-11-04T12:11:11.300Z,36992.00
2018-11-04T12:12:11.225Z,27392.00
2018-11-04T12:13:11.228Z,20928.00
2018-11-04T12:14:11.194Z,17200.00
2018-11-04T12:15:11.315Z,20192.00
2018-11-04T12:16:11.213Z,37600.00
2018-11-04T12:17:11.167Z,47232.00
2018-11-04T12:18:11.150Z,47552.00
2018-11-04T12:19:11.158Z,46976.00
2018-11-04T12:20:11.351Z,48224.00
2018-11-04T12:21:11.187Z,54368.00
2018-11-04T12:22:11.109Z,60160.00
2018-11-04T12:23:11.116Z,64064.00
2018-11-04T12:24:11.086Z,69920.00
2018-11-04T12:25:11.148Z,68256.00
2018-11-04T12:26:11.528Z,65120.00
2018-11-04T12:27:11.080Z,55040.00
2018-11-04T12:28:11.045Z,35616.00
2018-11-04T12:29:11.895Z,24576.00
2018-11-04T12:30:11.016Z,36832.00
2018-11-04T12:31:11.003Z,47712.00
2018-11-04T12:32:11.233Z,56256.00
2018-11-04T12:33:10.985Z,43488.00
2018-11-04T12:34:10.980Z,41024.00
2018-11-04T12:35:11.017Z,39008.00
2018-11-04T12:36:11.929Z,33568.00
2018-11-04T12:37:10.987Z,36480.00
2018-11-04T12:38:10.987Z,32256.00
2018-11-04T12:39:10.922Z,32128.00
2018-11-04T12:40:10.967Z,28640.00
2018-11-04T12:41:10.931Z,30464.00
2018-11-04T12:42:10.913Z,38176.00
2018-11-04T12:43:10.914Z,38240.00
2018-11-04T12:44:10.866Z,42464.00
2018-11-04T12:45:10.883Z,48192.00
2018-11-04T12:46:10.904Z,47232.00
2018-11-04T12:47:10.913Z,46976.00
2018-11-04T12:48:10.845Z,44640.00
2018-11-04T12:49:10.866Z,43264.00
2018-11-04T12:50:10.857Z,42848.00
2018-11-04T12:51:10.839Z,40512.00
2018-11-04T12:52:10.856Z,36672.00
2018-11-04T12:53:10.762Z,35488.00
2018-11-04T12:54:10.830Z,36160.00
2018-11-04T12:55:10.749Z,37504.00
2018-11-04T12:56:10.735Z,36480.00
2018-11-04T12:57:10.714Z,36480.00
2018-11-04T12:58:10.775Z,42880.00
2018-11-04T12:59:10.722Z,44320.00
2018-11-04T13:00:10.682Z,48320.00
2018-11-04T13:01:10.726Z,48608.00
2018-11-04T13:02:10.864Z,45120.00
2018-11-04T13:03:10.719Z,43200.00
2018-11-04T13:04:10.647Z,38432.00
2018-11-04T13:05:10.683Z,35936.00
2018-11-04T13:06:10.644Z,33184.00
2018-11-04T13:07:10.624Z,28160.00
2018-11-04T13:08:10.648Z,32320.00
2018-11-04T13:09:10.595Z,37216.00
2018-11-04T13:10:10.660Z,37280.00
2018-11-04T13:11:10.588Z,36736.00
2018-11-04T13:12:10.580Z,39744.00
2018-11-04T13:13:10.609Z,40640.00
2018-11-04T13:14:10.615Z,35616.00
2018-11-04T13:15:10.614Z,30816.00
2018-11-04T13:16:10.529Z,28864.00
2018-11-04T13:17:10.541Z,28864.00
2018-11-04T13:18:10.528Z,24992.00
2018-11-04T13:19:10.513Z,20448.00
2018-11-04T13:20:10.559Z,21600.00
2018-11-04T13:21:10.485Z,21280.00
2018-11-04T13:22:10.468Z,17072.00
2018-11-04T13:23:10.465Z,17280.00
2018-11-04T13:24:10.427Z,17664.00
2018-11-04T13:25:10.471Z,14776.00
2018-11-04T13:26:10.450Z,12364.00
2018-11-04T13:27:10.542Z,9852.00
2018-11-04T13:28:10.399Z,8848.00
2018-11-04T13:29:10.359Z,8392.00
2018-11-04T13:30:10.412Z,7964.00
2018-11-04T13:31:10.432Z,7676.00
2018-11-04T13:32:10.386Z,7824.00
2018-11-04T13:33:10.323Z,7752.00
2018-11-04T13:34:10.373Z,7800.00